Terminal Aerodrome Forecast
Issued by NWS Pocatello, ID

Home | Current Version | Previous Version | Text Only | Print | Product List | Glossary On
Versions: 1 2 3 4 5 6 7 8 9 10 11 12 13 14 15 16 17 18 19 20
000
FTUS45 KPIH 221120
TAFPIH
TAF
KPIH 221120Z 2212/2312 21012KT P6SM BKN050 OVC130
     FM221800 23025G35KT P6SM BKN050
     FM222100 23025G40KT P6SM VCSH SCT025 BKN035
     FM230200 24015G30KT P6SM SCT025 BKN035
     FM230600 22013KT P6SM OVC025=

USA.gov is the U.S. government's official web portal to all federal, state and local government web resources and services.